createdAt,value
2022-12-11T00:05:33.444Z,79.91
2022-12-11T00:11:33.948Z,79.75
2022-12-11T00:16:11.665Z,79.49
2022-12-11T00:17:12.844Z,79.64
2022-12-11T00:20:10.409Z,79.71
2022-12-11T00:22:38.983Z,79.86
2022-12-11T00:26:02.382Z,79.09
2022-12-11T00:27:03.186Z,79.17
2022-12-11T00:28:03.188Z,79.30
2022-12-11T00:39:11.458Z,78.82
2022-12-11T00:40:12.297Z,78.84
2022-12-11T00:41:12.100Z,78.89
2022-12-11T00:42:12.092Z,78.63
2022-12-11T00:43:12.041Z,78.58
2022-12-11T00:44:12.304Z,78.53
2022-12-11T00:55:34.811Z,78.35
2022-12-11T00:56:35.689Z,78.38
2022-12-11T00:57:35.657Z,78.36
2022-12-11T00:58:35.640Z,78.34
2022-12-11T00:59:35.595Z,78.15
2022-12-11T01:00:35.600Z,78.35
2022-12-11T01:01:35.674Z,78.42
2022-12-11T01:02:35.603Z,78.12
2022-12-11T01:03:35.548Z,78.09
2022-12-11T01:04:35.538Z,78.29
2022-12-11T01:05:35.556Z,78.35
2022-12-11T01:06:35.572Z,78.26
2022-12-11T01:07:35.514Z,78.20
2022-12-11T01:08:38.736Z,77.80
2022-12-11T01:09:35.492Z,78.01
2022-12-11T01:10:35.601Z,78.22
2022-12-11T01:11:35.450Z,77.92
2022-12-11T01:19:16.805Z,77.02
2022-12-11T01:20:18.530Z,77.26
2022-12-11T01:23:53.788Z,77.58
2022-12-11T01:30:39.574Z,78.20
2022-12-11T01:31:40.559Z,78.08
2022-12-11T01:32:40.403Z,78.33
2022-12-11T01:41:16.185Z,77.39
2022-12-11T01:42:17.087Z,77.24
2022-12-11T01:43:16.955Z,77.34
2022-12-11T01:44:16.937Z,77.54
2022-12-11T01:53:56.616Z,77.46
2022-12-11T01:54:57.475Z,77.48
2022-12-11T01:57:21.690Z,77.50
2022-12-11T02:01:11.230Z,77.53
2022-12-11T02:05:00.403Z,78.14
2022-12-11T02:07:37.631Z,78.49
2022-12-11T02:09:56.215Z,78.74
2022-12-11T02:15:34.913Z,77.46
2022-12-11T02:19:37.930Z,77.94
2022-12-11T02:22:46.952Z,77.97
2022-12-11T02:34:54.459Z,78.41
2022-12-11T02:35:55.338Z,78.37
2022-12-11T02:37:54.032Z,78.51
2022-12-11T02:40:04.464Z,78.05
2022-12-11T02:41:05.407Z,78.00
2022-12-11T02:42:05.472Z,77.88
2022-12-11T02:53:39.352Z,77.51
2022-12-11T02:54:40.523Z,77.30
2022-12-11T02:59:41.166Z,77.38
2022-12-11T03:00:41.964Z,77.53
2022-12-11T03:01:41.975Z,77.77
2022-12-11T03:02:41.901Z,77.92
2022-12-11T03:03:41.870Z,78.02
2022-12-11T03:04:41.889Z,78.13
2022-12-11T03:05:41.852Z,77.97
2022-12-11T03:06:41.846Z,77.89
2022-12-11T03:07:41.918Z,77.94
2022-12-11T03:19:29.846Z,77.66
2022-12-11T03:20:30.846Z,77.17
2022-12-11T03:21:30.693Z,76.92
2022-12-11T03:22:30.697Z,77.15
2022-12-11T03:23:30.705Z,77.23
2022-12-11T03:29:17.492Z,77.17
2022-12-11T03:30:18.347Z,77.31
2022-12-11T03:31:18.354Z,77.22
2022-12-11T03:32:18.301Z,77.32
2022-12-11T04:01:30.527Z,76.92
2022-12-11T04:02:31.429Z,76.12
2022-12-11T04:03:31.452Z,75.88
2022-12-11T04:04:31.342Z,76.01
2022-12-11T04:05:31.300Z,76.18
2022-12-11T04:06:31.300Z,76.10
2022-12-11T06:55:25.286Z,78.30
2022-12-11T06:56:26.218Z,78.36
2022-12-11T06:57:26.212Z,78.50
2022-12-11T06:58:26.423Z,78.40
2022-12-11T06:59:26.237Z,78.47
2022-12-11T07:00:26.197Z,78.52
2022-12-11T07:01:36.560Z,78.54
2022-12-11T07:02:27.005Z,78.25
2022-12-11T07:03:26.286Z,78.24
2022-12-11T07:04:27.141Z,78.24
2022-12-11T07:05:26.116Z,78.26
2022-12-11T07:06:26.177Z,78.34
2022-12-11T07:07:26.099Z,78.06
2022-12-11T07:08:26.152Z,77.93
2022-12-11T07:09:26.858Z,77.99
2022-12-11T07:10:25.124Z,78.10
2022-12-11T07:11:26.063Z,78.06
2022-12-11T07:12:26.062Z,78.26
2022-12-11T07:13:26.027Z,78.42
2022-12-11T07:14:26.064Z,78.58
2022-12-11T07:15:25.986Z,78.53
2022-12-11T07:16:26.082Z,78.60
2022-12-11T07:17:25.974Z,78.85
2022-12-11T07:18:25.973Z,78.87
2022-12-11T07:19:26.106Z,78.91
2022-12-11T07:20:25.898Z,78.97
2022-12-11T07:21:25.871Z,78.98
2022-12-11T07:22:25.862Z,78.95
2022-12-11T07:23:25.850Z,79.01
2022-12-11T07:24:25.878Z,78.99
2022-12-11T07:25:25.849Z,79.01
2022-12-11T07:26:25.807Z,78.98
2022-12-11T07:27:25.820Z,78.99
2022-12-11T07:28:25.819Z,78.88
2022-12-11T07:29:25.772Z,78.89
2022-12-11T07:30:25.766Z,78.47
2022-12-11T07:31:25.808Z,78.38
2022-12-11T07:32:25.940Z,78.34
2022-12-11T07:33:25.761Z,78.39
2022-12-11T07:34:25.713Z,78.38
2022-12-11T07:35:25.736Z,78.42
2022-12-11T07:36:25.687Z,78.42
2022-12-11T07:37:25.673Z,78.42
2022-12-11T07:38:25.663Z,78.41
2022-12-11T07:39:25.643Z,78.31
2022-12-11T07:40:25.645Z,78.23
2022-12-11T07:41:25.628Z,78.15
2022-12-11T07:42:25.609Z,77.97
2022-12-11T07:43:25.600Z,77.95
2022-12-11T07:44:25.821Z,77.95
2022-12-11T07:45:25.589Z,77.93
2022-12-11T07:46:25.563Z,77.93
2022-12-11T07:47:25.540Z,77.89
2022-12-11T07:48:25.527Z,77.86
2022-12-11T07:49:25.537Z,77.94
2022-12-11T07:50:25.535Z,78.08
2022-12-11T07:51:25.495Z,78.11
2022-12-11T07:52:25.482Z,78.15
2022-12-11T07:53:25.472Z,78.23
2022-12-11T07:54:25.475Z,78.23
2022-12-11T07:55:25.464Z,78.04
2022-12-11T07:56:25.450Z,77.95
2022-12-11T07:57:25.413Z,77.82
2022-12-11T07:58:25.422Z,77.70
2022-12-11T07:59:25.382Z,77.69
2022-12-11T08:00:25.520Z,77.74
2022-12-11T08:01:25.495Z,77.62
2022-12-11T08:02:25.395Z,77.56
2022-12-11T08:03:25.338Z,77.67
2022-12-11T08:04:25.330Z,77.95
2022-12-11T08:05:25.317Z,78.16
2022-12-11T08:06:25.316Z,78.19
2022-12-11T08:07:25.286Z,78.01
2022-12-11T08:08:25.316Z,78.12
2022-12-11T08:09:25.255Z,78.45
2022-12-11T08:10:25.297Z,79.59
2022-12-11T08:11:25.243Z,79.83
2022-12-11T08:12:25.243Z,80.27
2022-12-11T08:13:25.218Z,80.19
2022-12-11T08:14:25.211Z,79.83
2022-12-11T08:15:25.184Z,79.64
2022-12-11T08:16:25.248Z,79.22
2022-12-11T08:17:29.562Z,79.01
2022-12-11T08:18:25.158Z,79.34
2022-12-11T08:19:25.134Z,79.19
2022-12-11T08:20:25.276Z,78.96
2022-12-11T08:21:25.109Z,78.55
2022-12-11T08:22:25.131Z,77.90
2022-12-11T08:23:25.089Z,77.60
2022-12-11T08:24:25.074Z,77.12
2022-12-11T08:25:25.050Z,76.33
2022-12-11T08:26:25.988Z,76.23
2022-12-11T08:27:26.975Z,76.12
2022-12-11T08:28:27.186Z,75.47
2022-12-11T08:29:25.049Z,74.60
2022-12-11T08:30:25.078Z,73.54
2022-12-11T08:31:24.987Z,73.77
2022-12-11T08:32:25.000Z,74.08
2022-12-11T08:33:24.959Z,74.47
2022-12-11T08:34:24.950Z,74.55
2022-12-11T08:35:24.931Z,74.73
2022-12-11T08:36:24.920Z,74.98
2022-12-11T08:37:24.912Z,75.17
2022-12-11T08:38:25.701Z,75.45
2022-12-11T08:39:24.898Z,75.48
2022-12-11T08:40:24.869Z,75.35
2022-12-11T08:41:24.863Z,75.20
2022-12-11T08:42:24.855Z,75.20
2022-12-11T08:43:24.837Z,75.15
2022-12-11T08:44:24.819Z,75.15
2022-12-11T08:45:24.809Z,75.00
2022-12-11T08:46:24.896Z,75.01
2022-12-11T08:47:24.798Z,75.08
2022-12-11T08:48:24.781Z,74.97
2022-12-11T08:49:26.579Z,74.98
2022-12-11T08:50:24.742Z,75.03
2022-12-11T08:51:24.725Z,75.09
2022-12-11T08:52:24.724Z,74.78
2022-12-11T08:53:24.714Z,74.56
2022-12-11T08:54:24.704Z,74.58
2022-12-11T08:55:24.677Z,74.75
2022-12-11T08:56:24.668Z,74.91
2022-12-11T08:57:24.650Z,74.80
2022-12-11T08:58:24.736Z,74.82
2022-12-11T08:59:24.639Z,74.88
2022-12-11T09:00:24.660Z,73.67
2022-12-11T09:01:24.681Z,73.37
2022-12-11T09:02:24.642Z,73.41
2022-12-11T09:03:24.588Z,73.55
2022-12-11T09:04:24.573Z,73.74
2022-12-11T09:05:24.553Z,73.81
2022-12-11T09:06:24.543Z,73.96
2022-12-11T09:07:24.524Z,73.81
2022-12-11T09:08:24.573Z,73.85
2022-12-11T09:09:24.504Z,73.17
2022-12-11T09:10:24.512Z,72.89
2022-12-11T09:11:24.496Z,73.12
2022-12-11T09:12:24.470Z,73.10
2022-12-11T09:13:24.463Z,72.46
2022-12-11T09:14:24.452Z,72.24
2022-12-11T09:15:24.430Z,72.32
2022-12-11T09:16:24.433Z,72.43
2022-12-11T09:17:24.401Z,72.47
2022-12-11T09:18:24.430Z,72.35
2022-12-11T09:19:27.896Z,72.59
2022-12-11T09:20:24.398Z,72.76
2022-12-11T09:21:24.359Z,72.99
2022-12-11T09:22:24.346Z,72.98
2022-12-11T09:23:24.347Z,72.71
2022-12-11T09:24:24.325Z,72.58
2022-12-11T09:25:24.308Z,72.17
2022-12-11T09:26:24.301Z,71.69
2022-12-11T09:27:24.300Z,71.89
2022-12-11T09:28:24.268Z,72.03
2022-12-11T09:29:24.261Z,72.27
2022-12-11T09:30:24.241Z,72.42
2022-12-11T09:31:24.302Z,72.52
2022-12-11T09:32:24.233Z,72.70
2022-12-11T09:33:24.208Z,72.68
2022-12-11T09:34:29.154Z,72.91
2022-12-11T09:35:24.190Z,72.82
2022-12-11T09:36:24.183Z,72.26
2022-12-11T09:37:24.158Z,72.21
2022-12-11T09:38:24.140Z,72.20
2022-12-11T09:39:24.143Z,72.29
2022-12-11T09:40:24.112Z,72.33
2022-12-11T09:41:24.100Z,72.53
2022-12-11T09:42:24.105Z,72.68
2022-12-11T09:43:24.064Z,72.77
2022-12-11T09:44:24.135Z,72.66
2022-12-11T09:45:24.043Z,72.79
2022-12-11T09:46:24.868Z,72.45
2022-12-11T09:47:24.043Z,72.04
2022-12-11T09:48:24.031Z,71.99
2022-12-11T09:49:23.996Z,71.84
2022-12-11T09:50:24.007Z,71.70
2022-12-11T09:51:23.989Z,71.38
2022-12-11T09:52:23.957Z,71.68
2022-12-11T09:53:23.938Z,71.67
2022-12-11T09:54:23.950Z,71.33
2022-12-11T09:55:23.942Z,70.99
2022-12-11T09:56:23.911Z,70.83
2022-12-11T09:57:23.914Z,71.05
2022-12-11T09:58:23.903Z,71.16
2022-12-11T09:59:23.879Z,71.16
2022-12-11T10:00:23.850Z,71.30
2022-12-11T10:01:23.869Z,70.91
2022-12-11T10:02:23.857Z,70.80
2022-12-11T10:03:23.813Z,70.45
2022-12-11T10:04:23.817Z,70.81
2022-12-11T10:05:23.785Z,70.43
2022-12-11T10:06:23.782Z,70.26
2022-12-11T10:07:23.778Z,70.23
2022-12-11T10:08:23.879Z,70.41
2022-12-11T10:09:23.738Z,70.77
2022-12-11T10:10:23.733Z,71.03
2022-12-11T10:11:23.713Z,71.36
2022-12-11T10:12:23.707Z,71.54
2022-12-11T10:13:23.723Z,71.34
2022-12-11T10:14:23.717Z,71.30
2022-12-11T10:15:23.700Z,71.33
2022-12-11T10:16:23.667Z,71.52
2022-12-11T10:17:23.639Z,71.39
2022-12-11T10:18:23.629Z,70.98
2022-12-11T10:19:23.614Z,70.79
2022-12-11T10:20:23.620Z,70.94
2022-12-11T10:21:23.591Z,70.92
2022-12-11T10:22:23.603Z,71.17
2022-12-11T10:23:23.568Z,71.31
2022-12-11T10:24:57.476Z,70.65
2022-12-11T10:25:23.869Z,70.26
2022-12-11T10:26:23.529Z,70.06
2022-12-11T10:27:23.510Z,70.37
2022-12-11T10:28:23.516Z,69.74
2022-12-11T10:29:23.490Z,69.91
2022-12-11T10:30:23.531Z,70.44
2022-12-11T10:31:23.610Z,70.48
2022-12-11T10:32:23.455Z,70.90
2022-12-11T10:33:23.450Z,71.03
2022-12-11T10:34:23.428Z,71.09
2022-12-11T10:35:23.413Z,71.11
2022-12-11T10:36:23.424Z,71.19
2022-12-11T10:37:23.388Z,71.13
2022-12-11T10:38:23.378Z,71.16
2022-12-11T10:39:23.369Z,71.14
2022-12-11T10:40:23.357Z,71.44
2022-12-11T10:41:23.350Z,71.55
2022-12-11T10:42:23.325Z,71.56
2022-12-11T10:43:23.309Z,71.69
2022-12-11T10:44:23.301Z,71.64
2022-12-11T10:45:23.291Z,71.80
2022-12-11T10:46:23.350Z,71.95
2022-12-11T10:47:23.264Z,71.83
2022-12-11T10:48:23.260Z,71.56
2022-12-11T10:49:23.262Z,71.70
2022-12-11T10:50:23.227Z,71.63
2022-12-11T10:51:23.235Z,71.71
2022-12-11T10:52:23.204Z,71.75
2022-12-11T10:53:23.187Z,71.49
2022-12-11T10:54:23.179Z,71.49
2022-12-11T10:55:23.158Z,71.44
2022-12-11T10:56:23.173Z,71.09
2022-12-11T10:57:23.132Z,71.06
2022-12-11T10:58:23.129Z,71.11
2022-12-11T10:59:24.175Z,70.99
2022-12-11T11:00:23.103Z,70.85
2022-12-11T11:01:23.113Z,70.86
2022-12-11T11:02:23.160Z,70.61
2022-12-11T11:03:23.054Z,70.62
2022-12-11T11:04:23.095Z,70.69
2022-12-11T11:05:23.064Z,70.59
2022-12-11T11:06:23.041Z,70.47
2022-12-11T11:07:23.004Z,70.57
2022-12-11T11:08:23.053Z,70.60
2022-12-11T11:09:22.985Z,70.37
2022-12-11T11:10:22.968Z,70.43
2022-12-11T11:11:22.955Z,69.88
2022-12-11T11:12:22.959Z,69.53
2022-12-11T11:13:22.947Z,69.73
2022-12-11T11:14:22.948Z,69.81
2022-12-11T11:15:22.947Z,69.98
2022-12-11T11:16:23.008Z,69.92
2022-12-11T11:17:22.892Z,69.76
2022-12-11T11:18:22.868Z,69.76
2022-12-11T11:19:22.881Z,70.08
2022-12-11T11:20:22.840Z,70.20
2022-12-11T11:21:22.849Z,70.46
2022-12-11T11:22:22.830Z,70.54
2022-12-11T11:23:22.806Z,70.61
2022-12-11T11:24:22.817Z,70.64
2022-12-11T11:25:22.792Z,70.52
2022-12-11T11:26:22.822Z,70.49
2022-12-11T11:27:22.786Z,70.67
2022-12-11T11:28:22.752Z,70.77
2022-12-11T11:29:22.735Z,70.75
2022-12-11T11:30:22.712Z,70.76
2022-12-11T11:31:22.788Z,70.47
2022-12-11T11:32:22.687Z,70.09
2022-12-11T11:33:22.690Z,70.00
2022-12-11T11:34:22.668Z,69.97
2022-12-11T11:35:22.670Z,69.92
2022-12-11T11:36:22.645Z,70.19
2022-12-11T11:37:22.630Z,70.33
2022-12-11T11:38:22.627Z,70.46
2022-12-11T11:39:22.603Z,70.34
2022-12-11T11:40:22.590Z,70.18
2022-12-11T11:41:22.583Z,69.97
2022-12-11T11:42:22.566Z,69.92
2022-12-11T11:43:22.601Z,70.12
2022-12-11T11:44:22.534Z,69.60
2022-12-11T11:45:22.533Z,69.33
2022-12-11T11:46:22.580Z,69.25
2022-12-11T11:47:22.500Z,69.17
2022-12-11T11:48:22.493Z,69.32
2022-12-11T11:49:22.501Z,69.30
2022-12-11T11:50:22.462Z,69.37
2022-12-11T11:51:22.454Z,69.31
2022-12-11T11:52:22.444Z,69.51
2022-12-11T11:53:22.437Z,69.46
2022-12-11T11:54:22.436Z,69.44
2022-12-11T11:55:23.133Z,69.21
2022-12-11T11:56:22.386Z,68.77
2022-12-11T11:57:22.386Z,68.34
2022-12-11T11:58:22.375Z,67.70
2022-12-11T11:59:22.349Z,67.72
2022-12-11T12:00:22.336Z,67.60
2022-12-11T12:01:22.324Z,67.43
2022-12-11T12:02:22.490Z,67.53
2022-12-11T12:03:22.316Z,67.67
2022-12-11T12:04:23.190Z,67.33
2022-12-11T12:05:22.272Z,66.98
2022-12-11T12:06:22.268Z,67.10
2022-12-11T12:07:22.256Z,67.65
2022-12-11T12:08:22.398Z,67.82
2022-12-11T12:09:22.283Z,67.81
2022-12-11T12:10:22.203Z,67.37
2022-12-11T12:11:23.693Z,67.32
2022-12-11T12:12:27.409Z,67.29
2022-12-11T12:13:48.258Z,67.37
2022-12-11T12:14:51.048Z,67.21
2022-12-11T12:15:22.317Z,66.91
2022-12-11T12:16:51.014Z,66.81
2022-12-11T12:17:22.149Z,66.47
2022-12-11T12:18:22.096Z,66.82
2022-12-11T12:19:22.103Z,67.15
2022-12-11T12:20:22.074Z,67.32
2022-12-11T12:21:22.215Z,67.30
2022-12-11T12:22:22.047Z,67.50
2022-12-11T12:23:22.035Z,67.71
2022-12-11T12:24:23.291Z,67.62
2022-12-11T12:25:22.106Z,67.03
2022-12-11T12:26:22.021Z,66.92
2022-12-11T12:27:51.204Z,66.93
2022-12-11T12:28:22.005Z,67.53
2022-12-11T12:29:21.995Z,67.38
2022-12-11T12:30:23.231Z,66.88
2022-12-11T12:31:22.034Z,66.39
2022-12-11T12:32:21.963Z,66.35
2022-12-11T12:33:21.953Z,66.67
2022-12-11T12:34:21.907Z,67.21
2022-12-11T12:35:21.915Z,67.38
2022-12-11T12:36:21.869Z,67.49
2022-12-11T12:37:21.864Z,67.70
2022-12-11T12:38:21.845Z,67.47
2022-12-11T12:39:22.122Z,67.47
2022-12-11T12:40:21.820Z,67.72
2022-12-11T12:41:21.806Z,67.98
2022-12-11T12:42:21.829Z,68.23
2022-12-11T12:43:23.011Z,68.27
2022-12-11T12:44:21.826Z,68.26
2022-12-11T12:45:21.868Z,68.05
2022-12-11T12:46:22.473Z,68.13
2022-12-11T12:47:21.896Z,67.95
2022-12-11T12:48:21.712Z,67.69
2022-12-11T12:49:21.706Z,67.62
2022-12-11T12:50:21.699Z,67.20
2022-12-11T12:51:21.695Z,65.82
2022-12-11T12:52:21.967Z,65.93
2022-12-11T12:53:21.646Z,65.72
2022-12-11T12:54:21.633Z,66.22
2022-12-11T12:55:21.676Z,65.70
2022-12-11T12:56:21.613Z,65.85
2022-12-11T12:57:21.609Z,65.70
2022-12-11T12:58:21.626Z,65.74
2022-12-11T12:59:21.571Z,65.99
2022-12-11T13:00:21.551Z,66.11
2022-12-11T13:01:21.720Z,66.25
2022-12-11T13:02:21.582Z,66.58
2022-12-11T13:03:21.520Z,66.22
2022-12-11T13:04:54.032Z,66.33
2022-12-11T13:05:21.540Z,66.70
2022-12-11T13:06:21.496Z,66.25
2022-12-11T13:07:21.470Z,65.43
2022-12-11T13:08:21.507Z,65.13
2022-12-11T13:09:21.472Z,65.59
2022-12-11T13:10:21.437Z,65.96
2022-12-11T13:11:21.447Z,66.56
2022-12-11T13:12:21.411Z,67.22
2022-12-11T13:13:21.399Z,67.20
2022-12-11T13:14:21.412Z,67.31
2022-12-11T13:15:21.368Z,67.33
2022-12-11T13:16:21.390Z,67.22
2022-12-11T13:17:21.350Z,67.30
2022-12-11T13:18:21.327Z,67.20
2022-12-11T13:19:21.328Z,67.31
2022-12-11T13:20:21.299Z,67.56
2022-12-11T13:21:21.305Z,67.52
2022-12-11T13:22:21.277Z,67.79
2022-12-11T13:23:21.269Z,67.45
2022-12-11T13:24:21.246Z,67.50
2022-12-11T13:25:21.242Z,68.14
2022-12-11T13:26:21.230Z,68.57
2022-12-11T13:27:21.239Z,68.46
2022-12-11T13:28:21.195Z,68.60
2022-12-11T13:29:21.181Z,68.87
2022-12-11T13:30:21.178Z,69.09
2022-12-11T13:31:21.176Z,69.40
2022-12-11T13:32:21.152Z,69.52
2022-12-11T13:33:21.137Z,69.62
2022-12-11T13:34:21.126Z,69.29
2022-12-11T13:35:21.124Z,69.00
2022-12-11T13:36:24.577Z,68.52
2022-12-11T13:37:21.132Z,68.35
2022-12-11T13:38:21.067Z,68.62
2022-12-11T13:39:21.107Z,68.54
2022-12-11T13:40:21.038Z,68.15
2022-12-11T13:41:21.028Z,67.78
2022-12-11T13:42:21.040Z,67.53
2022-12-11T13:43:21.004Z,67.64
2022-12-11T13:44:21.016Z,67.61
2022-12-11T13:45:20.981Z,67.82
2022-12-11T13:46:21.013Z,67.96
2022-12-11T13:47:20.960Z,68.24
2022-12-11T13:48:20.979Z,68.16
2022-12-11T13:49:20.925Z,67.84
2022-12-11T13:50:20.916Z,67.42
2022-12-11T13:51:20.919Z,66.84
2022-12-11T13:52:20.901Z,67.07
2022-12-11T13:53:20.883Z,66.87
2022-12-11T13:54:20.892Z,66.93
2022-12-11T13:55:20.869Z,66.55
2022-12-11T13:56:20.839Z,66.91
2022-12-11T13:57:20.890Z,67.19
2022-12-11T13:58:20.817Z,66.82
2022-12-11T13:59:20.826Z,66.77
2022-12-11T14:00:20.787Z,66.36
2022-12-11T14:01:20.811Z,66.40
2022-12-11T14:02:20.802Z,66.13
2022-12-11T14:03:20.768Z,66.69
2022-12-11T14:04:20.741Z,67.01
2022-12-11T14:05:20.768Z,67.29
2022-12-11T14:06:20.707Z,67.48
2022-12-11T14:07:20.700Z,67.05
2022-12-11T14:08:20.734Z,67.22
2022-12-11T14:09:20.694Z,67.15
2022-12-11T14:10:20.655Z,67.51
2022-12-11T14:11:20.662Z,67.71
2022-12-11T14:12:20.628Z,67.57
2022-12-11T14:13:20.637Z,67.19
2022-12-11T14:14:20.617Z,67.52
2022-12-11T14:15:20.610Z,67.30
2022-12-11T14:16:20.621Z,67.30
2022-12-11T14:17:20.602Z,67.34
2022-12-11T14:18:20.550Z,67.06
2022-12-11T14:19:20.552Z,67.02
2022-12-11T14:20:20.556Z,67.45
2022-12-11T14:21:20.551Z,67.67
2022-12-11T14:22:20.659Z,67.67
2022-12-11T14:23:20.504Z,67.65
2022-12-11T14:24:20.487Z,67.39
2022-12-11T14:25:20.474Z,67.64
2022-12-11T14:26:20.471Z,67.96
2022-12-11T14:27:20.475Z,68.29
2022-12-11T14:28:20.428Z,68.46
2022-12-11T14:29:20.472Z,68.63
2022-12-11T14:30:20.398Z,68.59
2022-12-11T14:31:20.433Z,68.87
2022-12-11T14:32:20.387Z,68.93
2022-12-11T14:33:20.403Z,69.02
2022-12-11T14:34:20.354Z,69.08
2022-12-11T14:35:20.350Z,69.05
2022-12-11T14:36:20.368Z,69.25
2022-12-11T14:37:20.314Z,69.36
2022-12-11T14:38:20.334Z,69.61
2022-12-11T14:39:20.322Z,69.78
2022-12-11T14:40:20.290Z,69.88
2022-12-11T14:41:20.285Z,69.89
2022-12-11T14:42:20.266Z,69.12
2022-12-11T14:43:20.260Z,68.98
2022-12-11T14:44:20.254Z,68.73
2022-12-11T14:45:20.233Z,68.36
2022-12-11T14:46:20.275Z,68.20
2022-12-11T14:47:20.221Z,68.07
2022-12-11T14:48:20.195Z,68.18
2022-12-11T14:49:20.164Z,68.64
2022-12-11T14:50:20.166Z,68.72
2022-12-11T14:51:20.146Z,68.95
2022-12-11T14:52:23.856Z,69.05
2022-12-11T14:53:24.837Z,68.79
2022-12-11T14:54:24.829Z,68.78
2022-12-11T14:55:24.813Z,68.68
2022-12-11T14:56:24.809Z,68.38
2022-12-11T14:57:24.780Z,68.19
2022-12-11T14:58:24.820Z,68.51
2022-12-11T14:59:31.452Z,68.72
2022-12-11T15:00:24.763Z,69.06
2022-12-11T15:01:24.851Z,69.21
2022-12-11T15:02:24.850Z,69.49
2022-12-11T15:03:24.703Z,69.55
2022-12-11T15:04:24.708Z,69.72
2022-12-11T15:05:24.699Z,69.67
2022-12-11T15:06:24.672Z,69.42
2022-12-11T15:07:24.681Z,69.64
2022-12-11T15:08:25.016Z,69.91
2022-12-11T15:09:24.659Z,69.92
2022-12-11T15:10:24.648Z,69.68
2022-12-11T15:11:24.602Z,69.57
2022-12-11T15:12:24.594Z,69.61
2022-12-11T15:13:24.579Z,69.54
2022-12-11T15:14:24.567Z,69.53
2022-12-11T15:15:24.561Z,69.70
2022-12-11T15:16:24.671Z,69.87
2022-12-11T15:17:24.523Z,70.12
2022-12-11T15:18:24.513Z,70.06
2022-12-11T15:19:24.507Z,70.22
2022-12-11T15:20:24.484Z,70.26
2022-12-11T15:21:24.481Z,70.58
2022-12-11T15:22:24.487Z,70.81
2022-12-11T15:23:24.449Z,70.92
2022-12-11T15:24:24.434Z,71.21
2022-12-11T15:25:24.431Z,71.11
2022-12-11T15:26:24.419Z,70.83
2022-12-11T15:27:24.398Z,70.39
2022-12-11T15:28:24.384Z,70.53
2022-12-11T15:29:24.378Z,70.88
2022-12-11T15:30:24.453Z,70.91
2022-12-11T15:31:24.367Z,70.90
2022-12-11T15:32:24.343Z,70.99
2022-12-11T15:33:24.324Z,71.12
2022-12-11T15:34:24.326Z,70.94
2022-12-11T15:35:24.306Z,71.27
2022-12-11T15:36:24.296Z,71.47
2022-12-11T15:37:24.286Z,71.34
2022-12-11T15:38:24.272Z,71.30
2022-12-11T15:39:24.246Z,71.42
2022-12-11T15:40:24.234Z,71.41
2022-12-11T15:41:24.253Z,71.42
2022-12-11T15:42:24.221Z,71.31
2022-12-11T15:43:24.210Z,71.53
2022-12-11T15:44:24.213Z,71.75
2022-12-11T15:45:24.190Z,71.95
2022-12-11T15:46:24.212Z,71.88
2022-12-11T15:47:24.166Z,71.76
2022-12-11T15:48:24.141Z,71.61
2022-12-11T15:49:24.129Z,71.76
2022-12-11T15:50:24.121Z,71.76
2022-12-11T15:51:24.101Z,71.90
2022-12-11T15:52:24.081Z,72.14
2022-12-11T15:53:24.082Z,72.37
2022-12-11T15:54:24.061Z,72.24
2022-12-11T15:55:24.048Z,72.32
2022-12-11T15:56:24.045Z,72.60
2022-12-11T15:57:24.041Z,72.79
2022-12-11T15:58:24.030Z,72.91
2022-12-11T15:59:24.004Z,73.04
2022-12-11T16:00:24.012Z,73.08
2022-12-11T16:01:24.014Z,72.76
2022-12-11T16:02:23.999Z,72.86
2022-12-11T16:03:23.944Z,72.97
2022-12-11T16:04:23.965Z,72.39
2022-12-11T16:05:23.920Z,71.99
2022-12-11T16:06:23.906Z,71.75
2022-12-11T16:07:23.904Z,72.02
2022-12-11T16:08:23.915Z,72.27
2022-12-11T16:09:23.910Z,72.11
2022-12-11T16:10:23.854Z,72.36
2022-12-11T16:11:23.848Z,72.53
2022-12-11T16:12:23.827Z,72.31
2022-12-11T16:13:23.819Z,72.31
2022-12-11T16:14:23.814Z,72.16
2022-12-11T16:15:24.572Z,72.33
2022-12-11T16:16:23.809Z,72.40
2022-12-11T16:17:23.767Z,72.45
2022-12-11T16:18:23.762Z,72.54
2022-12-11T16:19:23.777Z,72.84
2022-12-11T16:20:23.731Z,72.82
2022-12-11T16:21:23.718Z,72.59
2022-12-11T16:22:23.706Z,72.77
2022-12-11T16:23:23.700Z,72.74
2022-12-11T16:24:23.710Z,72.94
2022-12-11T16:25:23.684Z,73.04
2022-12-11T16:26:23.660Z,73.20
2022-12-11T16:27:23.662Z,73.13
2022-12-11T16:28:23.677Z,72.73
2022-12-11T16:29:23.631Z,72.70
2022-12-11T16:30:23.622Z,72.81
2022-12-11T16:31:23.679Z,72.69
2022-12-11T16:32:23.586Z,72.44
2022-12-11T16:33:23.571Z,72.69
2022-12-11T16:34:23.559Z,73.13
2022-12-11T16:35:23.583Z,73.28
2022-12-11T16:36:23.561Z,73.13
2022-12-11T16:37:23.575Z,73.10
2022-12-11T16:38:23.527Z,73.16
2022-12-11T16:39:23.516Z,73.22
2022-12-11T16:40:23.521Z,73.27
2022-12-11T16:41:23.471Z,73.36
2022-12-11T16:42:23.512Z,73.27
2022-12-11T16:43:23.457Z,72.93
2022-12-11T16:44:23.427Z,72.65
2022-12-11T16:45:23.445Z,72.68
2022-12-11T16:46:23.468Z,72.67
2022-12-11T16:47:23.407Z,72.55
2022-12-11T16:48:23.384Z,72.50
2022-12-11T16:49:23.376Z,72.74
2022-12-11T16:50:23.355Z,72.87
2022-12-11T16:51:23.357Z,72.76
2022-12-11T16:52:23.326Z,72.83
2022-12-11T16:53:23.326Z,73.14
2022-12-11T16:54:23.309Z,73.30
2022-12-11T16:55:23.297Z,73.44
2022-12-11T16:56:23.294Z,73.48
2022-12-11T16:57:23.277Z,73.61
2022-12-11T16:58:23.255Z,73.73
2022-12-11T16:59:23.249Z,73.60
2022-12-11T17:00:23.228Z,73.46
2022-12-11T17:01:23.307Z,73.38
2022-12-11T17:02:23.293Z,72.96
2022-12-11T17:03:23.197Z,72.56
2022-12-11T17:04:23.203Z,72.49
2022-12-11T17:05:23.171Z,72.62
2022-12-11T17:06:23.194Z,72.63
2022-12-11T17:07:23.151Z,72.04
2022-12-11T17:08:23.191Z,71.68
2022-12-11T17:09:23.147Z,71.77
2022-12-11T17:10:23.108Z,71.94
2022-12-11T17:11:23.126Z,72.20
2022-12-11T17:12:23.088Z,72.30
2022-12-11T17:13:23.098Z,72.34
2022-12-11T17:14:23.059Z,72.62
2022-12-11T17:15:23.055Z,72.70
2022-12-11T17:16:23.029Z,72.70
2022-12-11T17:17:23.039Z,72.64
2022-12-11T17:18:23.007Z,72.58
2022-12-11T17:19:23.024Z,72.58
2022-12-11T17:20:22.986Z,72.72
2022-12-11T17:21:22.970Z,72.83
2022-12-11T17:22:23.004Z,72.84
2022-12-11T17:23:22.948Z,72.69
2022-12-11T17:24:22.928Z,72.83
2022-12-11T17:25:22.922Z,73.07
2022-12-11T17:26:22.938Z,73.05
2022-12-11T17:27:22.931Z,72.98
2022-12-11T17:28:22.885Z,72.96
2022-12-11T17:29:22.897Z,72.94
2022-12-11T17:30:22.876Z,72.79
2022-12-11T17:31:22.910Z,72.93
2022-12-11T17:32:22.855Z,73.11
2022-12-11T17:33:22.825Z,73.45
2022-12-11T17:34:22.825Z,73.77
2022-12-11T17:35:22.827Z,73.89
2022-12-11T17:36:22.789Z,73.99
2022-12-11T17:37:22.789Z,74.01
2022-12-11T17:38:22.789Z,73.90
2022-12-11T17:39:22.788Z,73.86
2022-12-11T17:40:22.737Z,73.75
2022-12-11T17:41:22.749Z,73.71
2022-12-11T17:42:22.721Z,73.67
2022-12-11T17:43:22.707Z,73.81
2022-12-11T17:44:22.677Z,73.91
2022-12-11T17:45:22.670Z,73.62
2022-12-11T17:46:22.680Z,73.29
2022-12-11T17:47:22.656Z,73.30
2022-12-11T17:48:29.139Z,73.41
2022-12-11T17:49:22.619Z,73.63
2022-12-11T17:50:22.609Z,73.50
2022-12-11T17:51:22.598Z,73.28
2022-12-11T17:52:22.591Z,73.37
2022-12-11T17:53:22.612Z,73.42
2022-12-11T17:54:22.582Z,73.40
2022-12-11T17:55:22.646Z,73.30
2022-12-11T17:56:22.540Z,73.35
2022-12-11T17:57:22.519Z,73.24
2022-12-11T17:58:22.534Z,73.24
2022-12-11T17:59:22.496Z,73.44
2022-12-11T18:00:22.487Z,73.29
2022-12-11T18:01:22.556Z,73.13
2022-12-11T18:02:22.455Z,72.80
2022-12-11T18:03:22.576Z,72.64
2022-12-11T18:04:22.431Z,72.54
2022-12-11T18:05:22.422Z,72.54
2022-12-11T18:06:22.414Z,72.16
2022-12-11T18:07:22.396Z,72.19
2022-12-11T18:08:22.450Z,72.24
2022-12-11T18:09:22.375Z,72.16
2022-12-11T18:10:22.351Z,72.05
2022-12-11T18:11:22.354Z,71.97
2022-12-11T18:12:22.331Z,71.87
2022-12-11T18:13:22.317Z,71.95
2022-12-11T18:14:22.318Z,71.98
2022-12-11T18:15:22.294Z,72.08
2022-12-11T18:16:22.306Z,72.06
2022-12-11T18:17:22.265Z,71.84
2022-12-11T18:18:22.247Z,71.88
2022-12-11T18:19:22.259Z,71.72
2022-12-11T18:20:22.243Z,71.65
2022-12-11T18:21:22.219Z,72.11
2022-12-11T18:22:22.237Z,72.36
2022-12-11T18:23:22.219Z,72.40